createdAt,value
2023-02-18T00:03:35.608Z,99222.38
2023-02-18T00:08:38.607Z,99223.41
2023-02-18T00:13:43.287Z,99222.59
2023-02-18T00:18:46.229Z,99222.63
2023-02-18T00:23:49.131Z,99236.31
2023-02-18T00:28:54.377Z,99228.25
2023-02-18T00:33:58.760Z,99227.84
2023-02-18T00:39:08.271Z,99231.66
2023-02-18T00:44:13.888Z,99232.28
2023-02-18T00:49:17.799Z,99234.31
2023-02-18T00:54:20.703Z,99233.06
2023-02-18T00:59:24.981Z,99229.06
2023-02-18T01:04:27.934Z,99236.94
2023-02-18T01:09:31.362Z,99230.66
2023-02-18T01:14:35.595Z,99236.28
2023-02-18T01:19:38.484Z,99241.09
2023-02-18T01:24:41.879Z,99242.31
2023-02-18T01:29:46.212Z,99247.56
2023-02-18T01:34:49.153Z,99233.25
2023-02-18T01:39:52.039Z,99241.66
2023-02-18T01:45:16.423Z,99229.81
2023-02-18T01:50:19.472Z,99238.59
2023-02-18T01:55:24.822Z,99234.31
2023-02-18T02:00:29.383Z,99234.13
2023-02-18T02:05:34.354Z,99231.28
2023-02-18T02:10:48.861Z,99229.25
2023-02-18T02:15:59.982Z,99230.25
2023-02-18T02:21:40.512Z,99239.47
2023-02-18T02:27:16.230Z,99239.28
2023-02-18T02:32:58.633Z,99241.31
2023-02-18T02:38:07.577Z,99240.97
2023-02-18T02:43:19.305Z,99244.94
2023-02-18T02:48:29.647Z,99234.84
2023-02-18T02:53:36.557Z,99249.25
2023-02-18T02:58:39.461Z,99241.28
2023-02-18T03:04:20.666Z,99240.03
2023-02-18T03:09:41.107Z,99240.88
2023-02-18T03:14:54.634Z,99242.63
2023-02-18T03:20:04.247Z,99244.03
2023-02-18T03:25:12.284Z,99247.28
2023-02-18T03:30:21.123Z,99242.25
2023-02-18T03:35:25.286Z,99237.59
2023-02-18T03:40:30.546Z,99231.97
2023-02-18T03:45:34.605Z,99242.06
2023-02-18T03:50:37.629Z,99225.91
2023-02-18T03:55:42.645Z,99229.72
2023-02-18T04:00:45.623Z,99225.03
2023-02-18T04:05:48.891Z,99229.91
2023-02-18T04:10:53.176Z,99237.34
2023-02-18T04:15:56.262Z,99245.25
2023-02-18T04:20:59.187Z,99248.47
2023-02-18T04:26:03.466Z,99251.66
2023-02-18T04:31:06.465Z,99239.38
2023-02-18T04:36:10.576Z,99241.63
2023-02-18T04:41:14.927Z,99249.19
2023-02-18T04:46:17.905Z,99213.88
2023-02-18T04:51:21.304Z,99227.13
2023-02-18T04:56:25.597Z,99223.06
2023-02-18T05:01:28.595Z,99216.66
2023-02-18T05:06:31.630Z,99232.88
2023-02-18T05:11:35.902Z,99230.28
2023-02-18T05:16:38.791Z,99236.59
2023-02-18T05:21:41.799Z,99226.28
2023-02-18T05:26:46.554Z,99219.31
2023-02-18T05:31:49.561Z,99208.59
2023-02-18T05:36:53.153Z,99197.47
2023-02-18T05:41:57.392Z,99196.53
2023-02-18T05:47:01.723Z,99184.50
2023-02-18T05:52:05.274Z,99183.66
2023-02-18T05:57:09.509Z,99182.47
2023-02-18T06:02:12.504Z,99177.47
2023-02-18T06:07:15.396Z,99175.06
2023-02-18T06:12:19.657Z,99182.56
2023-02-18T06:17:22.747Z,99188.97
2023-02-18T06:22:25.800Z,99175.66
2023-02-18T06:27:30.090Z,99173.66
2023-02-18T06:32:32.998Z,99175.56
2023-02-18T06:37:35.894Z,99174.53
2023-02-18T06:42:40.287Z,99180.34
2023-02-18T06:47:43.246Z,99163.25
2023-02-18T06:52:46.143Z,99163.16
2023-02-18T06:57:50.457Z,99158.78
2023-02-18T07:02:53.342Z,99159.38
2023-02-18T07:07:57.297Z,99155.47
2023-02-18T07:13:01.612Z,99156.25
2023-02-18T07:18:04.767Z,99148.94
2023-02-18T07:23:07.787Z,99150.25
2023-02-18T07:28:12.047Z,99139.84
2023-02-18T07:33:15.143Z,99135.44
2023-02-18T07:38:18.069Z,99107.50
2023-02-18T07:43:22.765Z,99117.75
2023-02-18T07:48:25.684Z,99078.16
2023-02-18T07:53:28.591Z,99075.19
2023-02-18T07:58:35.549Z,99078.44
2023-02-18T08:03:39.011Z,99085.41
2023-02-18T08:08:41.873Z,99076.06
2023-02-18T08:13:47.217Z,99055.59
2023-02-18T08:18:50.724Z,99048.97
2023-02-18T08:23:54.529Z,99044.28
2023-02-18T08:28:58.816Z,99040.09
2023-02-18T08:34:03.616Z,99024.38
2023-02-18T08:39:06.561Z,99017.75
2023-02-18T08:44:10.864Z,98997.06
2023-02-18T08:49:13.823Z,98992.44
2023-02-18T08:54:16.781Z,98989.41
2023-02-18T08:59:21.086Z,98979.94
2023-02-18T09:04:24.056Z,98966.38
2023-02-18T09:09:26.978Z,98960.47
2023-02-18T09:14:31.334Z,98954.63
2023-02-18T09:19:34.240Z,98952.50
2023-02-18T09:24:39.126Z,98935.59
2023-02-18T09:29:44.352Z,98936.66
2023-02-18T09:34:47.335Z,98912.41
2023-02-18T09:39:50.442Z,98920.09
2023-02-18T09:44:59.001Z,98913.31
2023-02-18T09:50:07.837Z,98907.63
2023-02-18T09:55:20.795Z,98902.25
2023-02-18T10:00:31.810Z,98885.00
2023-02-18T10:05:37.325Z,98872.97
2023-02-18T10:10:43.214Z,98881.13
2023-02-18T10:15:48.404Z,98873.09
2023-02-18T10:20:53.376Z,98875.88
2023-02-18T10:25:57.731Z,98858.25
2023-02-18T10:31:08.518Z,98853.66
2023-02-18T10:36:25.243Z,98843.09
2023-02-18T10:41:39.127Z,98841.03
2023-02-18T10:46:51.894Z,98826.56
2023-02-18T10:51:58.989Z,98828.53
2023-02-18T10:57:04.736Z,98796.88
2023-02-18T11:02:18.623Z,98784.97
2023-02-18T11:07:25.174Z,98771.75
2023-02-18T11:12:31.424Z,98758.41
2023-02-18T11:17:37.879Z,98749.19
2023-02-18T11:22:41.557Z,98717.06
2023-02-18T11:27:47.904Z,98723.16
2023-02-18T11:32:56.818Z,98725.09
2023-02-18T11:38:01.580Z,98713.09
2023-02-18T11:43:07.421Z,98708.06
2023-02-18T11:48:18.627Z,98699.84
2023-02-18T11:53:29.550Z,98695.50
2023-02-18T11:58:39.730Z,98686.72
2023-02-18T12:03:49.472Z,98689.13
2023-02-18T12:08:55.882Z,98678.34
2023-02-18T12:14:00.020Z,98679.16
2023-02-18T12:19:28.626Z,98666.59
2023-02-18T12:24:53.894Z,98678.56
2023-02-18T12:30:19.616Z,98665.81
2023-02-18T12:35:42.101Z,98664.19
2023-02-18T12:41:01.727Z,98667.41
2023-02-18T12:46:28.826Z,98661.75
2023-02-18T12:51:45.631Z,98679.75
2023-02-18T12:57:10.399Z,98674.50
2023-02-18T13:02:35.985Z,98662.41
2023-02-18T13:08:12.197Z,98656.41
2023-02-18T13:13:19.596Z,98663.13
2023-02-18T13:18:27.709Z,98641.03
2023-02-18T13:23:36.847Z,98639.44
2023-02-18T13:28:45.094Z,98639.16
2023-02-18T13:33:55.101Z,98650.59
2023-02-18T13:39:08.397Z,98650.34
2023-02-18T13:44:40.996Z,98656.50
2023-02-18T13:49:44.019Z,98667.13
2023-02-18T13:54:51.759Z,98663.34
2023-02-18T13:59:59.784Z,98673.19
2023-02-18T14:05:21.430Z,98678.66
2023-02-18T14:10:35.751Z,98673.25
2023-02-18T14:16:02.110Z,98664.53
2023-02-18T14:21:19.304Z,98664.97
2023-02-18T14:26:31.191Z,98696.19
2023-02-18T14:31:55.412Z,98673.66
2023-02-18T14:37:11.648Z,98652.31
2023-02-18T14:42:25.810Z,98675.44
2023-02-18T14:47:38.228Z,98705.00
2023-02-18T14:52:46.561Z,98691.53
2023-02-18T14:57:55.224Z,98702.66
2023-02-18T15:02:58.180Z,98706.44
2023-02-18T15:08:04.033Z,98712.22
2023-02-18T15:13:15.004Z,98719.94
2023-02-18T15:18:24.189Z,98716.53
2023-02-18T15:23:27.136Z,98722.28
2023-02-18T15:28:34.355Z,98726.34
2023-02-18T15:33:37.387Z,98724.84
2023-02-18T15:38:42.938Z,98736.72
2023-02-18T15:43:55.912Z,98730.06
2023-02-18T15:48:59.592Z,98732.66
2023-02-18T15:54:05.806Z,98741.69
2023-02-18T15:59:17.128Z,98739.06
2023-02-18T16:04:22.032Z,98736.03
2023-02-18T16:09:27.380Z,98724.81
2023-02-18T16:14:36.101Z,98753.41
2023-02-18T16:20:02.811Z,98745.91
2023-02-18T16:25:17.549Z,98755.22
2023-02-18T16:30:24.317Z,98771.13
2023-02-18T16:35:32.691Z,98801.16
2023-02-18T16:40:41.444Z,98791.47
2023-02-18T16:45:49.868Z,98790.16
2023-02-18T16:50:53.560Z,98800.19
2023-02-18T16:55:56.983Z,98795.56
2023-02-18T17:01:01.940Z,98792.13
2023-02-18T17:06:05.379Z,98805.44
2023-02-18T17:11:16.357Z,98805.66
2023-02-18T17:16:21.227Z,98818.59
2023-02-18T17:21:26.413Z,98834.13
2023-02-18T17:26:30.777Z,98822.31
2023-02-18T17:31:37.641Z,98837.94
2023-02-18T17:36:45.313Z,98847.66
2023-02-18T17:41:48.598Z,98839.22
2023-02-18T17:46:54.872Z,98833.78
2023-02-18T17:51:58.190Z,98859.72
2023-02-18T17:57:01.231Z,98865.38
2023-02-18T18:02:11.756Z,98871.59
2023-02-18T18:07:14.942Z,98861.69
2023-02-18T18:12:18.334Z,98885.88
2023-02-18T18:17:22.660Z,98873.94
2023-02-18T18:22:25.607Z,98891.81
2023-02-18T18:27:28.584Z,98907.97
2023-02-18T18:32:32.998Z,98895.13
2023-02-18T18:37:36.001Z,98916.75
2023-02-18T18:42:39.951Z,98920.28
2023-02-18T18:47:44.545Z,98912.19
2023-02-18T18:52:48.971Z,98910.16
2023-02-18T18:57:51.968Z,98929.25
2023-02-18T19:02:56.648Z,98926.38
2023-02-18T19:08:00.121Z,98926.19
2023-02-18T19:13:03.927Z,98927.00
2023-02-18T19:18:08.979Z,98947.56
2023-02-18T19:23:13.235Z,98939.91
2023-02-18T19:28:16.291Z,98939.97
2023-02-18T19:33:20.613Z,98945.78
2023-02-18T19:38:23.564Z,98947.22
2023-02-18T19:43:26.461Z,98948.63
2023-02-18T19:48:30.781Z,98959.53
2023-02-18T19:53:33.856Z,98946.03
2023-02-18T19:58:37.403Z,98947.47
2023-02-18T20:03:41.725Z,98950.88
2023-02-18T20:08:44.709Z,98944.44
2023-02-18T20:13:49.313Z,98961.78
2023-02-18T20:18:53.990Z,98964.19
2023-02-18T20:23:56.926Z,98964.56
2023-02-18T20:29:00.117Z,98962.97
2023-02-18T20:34:04.405Z,98967.22
2023-02-18T20:39:15.644Z,98968.00
2023-02-18T20:44:20.937Z,98968.81
2023-02-18T20:49:25.373Z,98980.28
2023-02-18T20:54:29.346Z,98992.78
2023-02-18T20:59:33.388Z,98983.53
2023-02-18T21:04:37.792Z,98971.88
2023-02-18T21:09:40.954Z,98975.06
2023-02-18T21:14:44.034Z,98975.91
2023-02-18T21:19:48.335Z,98979.53
2023-02-18T21:24:51.797Z,98977.31
2023-02-18T21:29:55.047Z,98974.69
2023-02-18T21:34:59.322Z,98982.09
2023-02-18T21:40:02.254Z,98984.34
2023-02-18T21:45:05.603Z,98981.50
2023-02-18T21:50:10.810Z,98974.69
2023-02-18T21:55:14.103Z,98969.63
2023-02-18T22:00:20.964Z,98969.03
2023-02-18T22:05:26.124Z,98967.22
2023-02-18T22:10:29.061Z,98968.22
2023-02-18T22:15:31.975Z,98979.50
2023-02-18T22:20:36.231Z,98985.13
2023-02-18T22:25:39.125Z,98981.09
2023-02-18T22:30:42.111Z,98979.50
2023-02-18T22:35:46.431Z,98980.69
2023-02-18T22:40:50.926Z,98975.31
2023-02-18T22:45:53.873Z,98983.13
2023-02-18T22:50:58.186Z,98986.56
2023-02-18T22:56:02.453Z,98980.31
2023-02-18T23:01:07.016Z,98977.09
2023-02-18T23:06:12.492Z,98981.94
2023-02-18T23:11:18.864Z,98981.31
2023-02-18T23:16:22.608Z,98981.94
2023-02-18T23:21:26.859Z,98983.53
2023-02-18T23:26:29.768Z,98988.34
2023-02-18T23:31:37.705Z,98976.28
2023-02-18T23:36:42.941Z,98975.47
2023-02-18T23:41:46.662Z,98976.28
2023-02-18T23:46:49.786Z,98965.81
2023-02-18T23:51:55.688Z,98971.25
2023-02-18T23:56:58.538Z,98952.94
